sensor_id;sensor_type;location;lat;lon;timestamp;P1;durP1;ratioP1;P2;durP2;ratioP2
20367;SDS011;10343;52.402;9.796;2023-07-30T00:02:19;0.00;;;0.00;;
20367;SDS011;10343;52.402;9.796;2023-07-30T00:04:57;0.00;;;0.00;;
20367;SDS011;10343;52.402;9.796;2023-07-30T00:07:27;0.00;;;0.00;;
20367;SDS011;10343;52.402;9.796;2023-07-30T00:09:58;0.28;;;0.00;;
20367;SDS011;10343;52.402;9.796;2023-07-30T00:12:27;0.20;;;0.00;;
20367;SDS011;10343;52.402;9.796;2023-07-30T00:14:55;0.05;;;0.00;;
20367;SDS011;10343;52.402;9.796;2023-07-30T00:17:24;0.32;;;0.00;;
20367;SDS011;10343;52.402;9.796;2023-07-30T00:19:52;0.00;;;0.00;;
20367;SDS011;10343;52.402;9.796;2023-07-30T00:22:20;0.00;;;0.00;;
20367;SDS011;10343;52.402;9.796;2023-07-30T00:24:50;1.77;;;0.00;;
20367;SDS011;10343;52.402;9.796;2023-07-30T00:27:17;0.25;;;0.00;;
20367;SDS011;10343;52.402;9.796;2023-07-30T00:29:49;0.43;;;0.00;;
20367;SDS011;10343;52.402;9.796;2023-07-30T00:32:19;0.17;;;0.00;;
20367;SDS011;10343;52.402;9.796;2023-07-30T00:34:50;0.47;;;0.00;;
20367;SDS011;10343;52.402;9.796;2023-07-30T00:37:20;0.17;;;0.00;;
20367;SDS011;10343;52.402;9.796;2023-07-30T00:39:49;0.00;;;0.00;;
20367;SDS011;10343;52.402;9.796;2023-07-30T00:42:20;0.22;;;0.00;;
20367;SDS011;10343;52.402;9.796;2023-07-30T00:44:48;2.15;;;0.00;;
20367;SDS011;10343;52.402;9.796;2023-07-30T00:47:17;0.17;;;0.00;;
20367;SDS011;10343;52.402;9.796;2023-07-30T00:49:45;0.10;;;0.00;;
20367;SDS011;10343;52.402;9.796;2023-07-30T00:52:15;0.45;;;0.00;;
20367;SDS011;10343;52.402;9.796;2023-07-30T00:54:46;1.00;;;0.00;;
20367;SDS011;10343;52.402;9.796;2023-07-30T00:57:18;0.20;;;0.00;;
20367;SDS011;10343;52.402;9.796;2023-07-30T01:00:04;0.40;;;0.00;;
20367;SDS011;10343;52.402;9.796;2023-07-30T01:02:36;7.63;;;0.00;;
20367;SDS011;10343;52.402;9.796;2023-07-30T01:05:09;0.00;;;0.00;;
20367;SDS011;10343;52.402;9.796;2023-07-30T01:07:38;0.50;;;0.00;;
20367;SDS011;10343;52.402;9.796;2023-07-30T01:10:07;1.17;;;0.00;;
20367;SDS011;10343;52.402;9.796;2023-07-30T01:12:36;0.15;;;0.00;;
20367;SDS011;10343;52.402;9.796;2023-07-30T01:15:05;2.33;;;0.00;;
20367;SDS011;10343;52.402;9.796;2023-07-30T01:17:34;2.53;;;0.00;;
20367;SDS011;10343;52.402;9.796;2023-07-30T01:20:04;8.52;;;0.00;;
20367;SDS011;10343;52.402;9.796;2023-07-30T01:22:34;0.47;;;0.00;;
20367;SDS011;10343;52.402;9.796;2023-07-30T01:25:03;0.10;;;0.00;;
20367;SDS011;10343;52.402;9.796;2023-07-30T01:27:31;0.50;;;0.00;;
20367;SDS011;10343;52.402;9.796;2023-07-30T01:30:06;0.20;;;0.00;;
20367;SDS011;10343;52.402;9.796;2023-07-30T01:32:40;5.45;;;0.00;;
20367;SDS011;10343;52.402;9.796;2023-07-30T01:35:09;1.17;;;0.00;;
20367;SDS011;10343;52.402;9.796;2023-07-30T01:37:41;2.00;;;0.00;;
20367;SDS011;10343;52.402;9.796;2023-07-30T01:40:12;0.63;;;0.00;;
20367;SDS011;10343;52.402;9.796;2023-07-30T01:42:40;0.10;;;0.00;;
20367;SDS011;10343;52.402;9.796;2023-07-30T01:45:10;0.60;;;0.00;;
20367;SDS011;10343;52.402;9.796;2023-07-30T01:47:39;0.10;;;0.00;;
20367;SDS011;10343;52.402;9.796;2023-07-30T01:50:09;0.60;;;0.00;;
20367;SDS011;10343;52.402;9.796;2023-07-30T01:52:43;0.00;;;0.00;;
20367;SDS011;10343;52.402;9.796;2023-07-30T01:55:12;0.00;;;0.00;;
20367;SDS011;10343;52.402;9.796;2023-07-30T01:57:42;0.63;;;0.00;;
20367;SDS011;10343;52.402;9.796;2023-07-30T02:00:10;0.52;;;0.00;;
20367;SDS011;10343;52.402;9.796;2023-07-30T02:02:39;4.05;;;0.00;;
20367;SDS011;10343;52.402;9.796;2023-07-30T02:05:08;0.32;;;0.00;;
20367;SDS011;10343;52.402;9.796;2023-07-30T02:07:38;0.20;;;0.00;;
20367;SDS011;10343;52.402;9.796;2023-07-30T02:10:08;1.38;;;0.00;;
20367;SDS011;10343;52.402;9.796;2023-07-30T02:12:39;0.30;;;0.00;;
20367;SDS011;10343;52.402;9.796;2023-07-30T02:15:07;0.13;;;0.00;;
20367;SDS011;10343;52.402;9.796;2023-07-30T02:17:38;3.30;;;0.00;;
20367;SDS011;10343;52.402;9.796;2023-07-30T02:20:07;0.52;;;0.00;;
20367;SDS011;10343;52.402;9.796;2023-07-30T02:22:36;4.88;;;0.00;;
20367;SDS011;10343;52.402;9.796;2023-07-30T02:25:05;0.30;;;0.00;;
20367;SDS011;10343;52.402;9.796;2023-07-30T02:27:35;0.50;;;0.00;;
20367;SDS011;10343;52.402;9.796;2023-07-30T02:30:03;0.65;;;0.00;;
20367;SDS011;10343;52.402;9.796;2023-07-30T02:32:33;0.25;;;0.00;;
20367;SDS011;10343;52.402;9.796;2023-07-30T02:35:04;0.35;;;0.00;;
20367;SDS011;10343;52.402;9.796;2023-07-30T02:37:33;0.10;;;0.00;;
20367;SDS011;10343;52.402;9.796;2023-07-30T02:40:01;0.10;;;0.00;;
20367;SDS011;10343;52.402;9.796;2023-07-30T02:42:31;2.45;;;0.00;;
20367;SDS011;10343;52.402;9.796;2023-07-30T02:45:02;1.00;;;0.00;;
20367;SDS011;10343;52.402;9.796;2023-07-30T02:47:32;0.77;;;0.00;;
20367;SDS011;10343;52.402;9.796;2023-07-30T02:50:01;0.32;;;0.00;;
20367;SDS011;10343;52.402;9.796;2023-07-30T02:52:29;0.20;;;0.00;;
20367;SDS011;10343;52.402;9.796;2023-07-30T02:54:57;0.55;;;0.00;;
20367;SDS011;10343;52.402;9.796;2023-07-30T02:57:27;0.10;;;0.00;;
20367;SDS011;10343;52.402;9.796;2023-07-30T02:59:56;0.85;;;0.00;;
20367;SDS011;10343;52.402;9.796;2023-07-30T03:02:25;1.25;;;0.00;;
20367;SDS011;10343;52.402;9.796;2023-07-30T03:04:55;0.70;;;0.00;;
20367;SDS011;10343;52.402;9.796;2023-07-30T03:07:23;0.00;;;0.00;;
20367;SDS011;10343;52.402;9.796;2023-07-30T03:09:54;0.00;;;0.00;;
20367;SDS011;10343;52.402;9.796;2023-07-30T03:12:22;0.32;;;0.00;;
20367;SDS011;10343;52.402;9.796;2023-07-30T03:14:50;9.55;;;0.00;;
20367;SDS011;10343;52.402;9.796;2023-07-30T03:17:18;0.40;;;0.00;;
20367;SDS011;10343;52.402;9.796;2023-07-30T03:19:47;0.25;;;0.00;;
20367;SDS011;10343;52.402;9.796;2023-07-30T03:22:15;3.17;;;0.00;;
20367;SDS011;10343;52.402;9.796;2023-07-30T03:24:46;1.88;;;0.00;;
20367;SDS011;10343;52.402;9.796;2023-07-30T03:27:14;6.72;;;0.00;;
20367;SDS011;10343;52.402;9.796;2023-07-30T03:29:42;0.25;;;0.00;;
20367;SDS011;10343;52.402;9.796;2023-07-30T03:32:10;1.95;;;0.00;;
20367;SDS011;10343;52.402;9.796;2023-07-30T03:34:47;1.48;;;0.00;;
20367;SDS011;10343;52.402;9.796;2023-07-30T03:37:15;1.15;;;0.00;;
20367;SDS011;10343;52.402;9.796;2023-07-30T03:39:45;2.30;;;0.00;;
20367;SDS011;10343;52.402;9.796;2023-07-30T03:42:15;0.00;;;0.00;;
20367;SDS011;10343;52.402;9.796;2023-07-30T03:44:44;0.95;;;0.00;;
20367;SDS011;10343;52.402;9.796;2023-07-30T03:47:12;1.65;;;0.00;;
20367;SDS011;10343;52.402;9.796;2023-07-30T03:49:41;5.65;;;0.00;;
20367;SDS011;10343;52.402;9.796;2023-07-30T03:52:14;0.50;;;0.00;;
20367;SDS011;10343;52.402;9.796;2023-07-30T03:54:43;0.00;;;0.00;;
20367;SDS011;10343;52.402;9.796;2023-07-30T03:57:11;0.40;;;0.00;;
20367;SDS011;10343;52.402;9.796;2023-07-30T03:59:47;0.45;;;0.00;;
20367;SDS011;10343;52.402;9.796;2023-07-30T04:02:15;0.10;;;0.00;;
20367;SDS011;10343;52.402;9.796;2023-07-30T04:04:43;1.30;;;0.00;;
20367;SDS011;10343;52.402;9.796;2023-07-30T04:07:12;2.30;;;0.00;;
20367;SDS011;10343;52.402;9.796;2023-07-30T04:09:41;1.55;;;0.00;;
20367;SDS011;10343;52.402;9.796;2023-07-30T04:12:09;0.30;;;0.00;;
20367;SDS011;10343;52.402;9.796;2023-07-30T04:14:37;0.20;;;0.00;;
20367;SDS011;10343;52.402;9.796;2023-07-30T04:17:06;0.50;;;0.00;;
20367;SDS011;10343;52.402;9.796;2023-07-30T04:19:34;4.68;;;0.00;;
20367;SDS011;10343;52.402;9.796;2023-07-30T04:22:03;0.10;;;0.00;;
20367;SDS011;10343;52.402;9.796;2023-07-30T04:24:31;5.32;;;0.00;;
20367;SDS011;10343;52.402;9.796;2023-07-30T04:27:01;0.20;;;0.00;;
20367;SDS011;10343;52.402;9.796;2023-07-30T04:29:30;0.10;;;0.00;;
20367;SDS011;10343;52.402;9.796;2023-07-30T04:32:00;0.80;;;0.00;;
20367;SDS011;10343;52.402;9.796;2023-07-30T04:34:28;0.98;;;0.00;;
20367;SDS011;10343;52.402;9.796;2023-07-30T04:36:57;0.88;;;0.00;;
20367;SDS011;10343;52.402;9.796;2023-07-30T04:39:25;1.13;;;0.00;;
20367;SDS011;10343;52.402;9.796;2023-07-30T04:41:53;1.23;;;0.00;;
20367;SDS011;10343;52.402;9.796;2023-07-30T04:44:23;6.00;;;0.00;;
20367;SDS011;10343;52.402;9.796;2023-07-30T04:46:53;2.83;;;0.00;;
20367;SDS011;10343;52.402;9.796;2023-07-30T04:49:22;1.45;;;0.00;;
20367;SDS011;10343;52.402;9.796;2023-07-30T04:51:53;2.70;;;0.00;;
20367;SDS011;10343;52.402;9.796;2023-07-30T04:54:24;1.55;;;0.00;;
20367;SDS011;10343;52.402;9.796;2023-07-30T04:56:53;0.47;;;0.00;;
20367;SDS011;10343;52.402;9.796;2023-07-30T04:59:41;9.48;;;0.00;;
20367;SDS011;10343;52.402;9.796;2023-07-30T05:02:10;2.20;;;0.00;;
20367;SDS011;10343;52.402;9.796;2023-07-30T05:04:39;1.38;;;0.00;;
20367;SDS011;10343;52.402;9.796;2023-07-30T05:07:07;1.95;;;0.00;;
20367;SDS011;10343;52.402;9.796;2023-07-30T05:09:42;4.75;;;0.00;;
20367;SDS011;10343;52.402;9.796;2023-07-30T05:12:10;0.55;;;0.00;;
20367;SDS011;10343;52.402;9.796;2023-07-30T05:14:43;0.38;;;0.00;;
20367;SDS011;10343;52.402;9.796;2023-07-30T05:17:11;1.65;;;0.00;;
20367;SDS011;10343;52.402;9.796;2023-07-30T05:19:40;1.30;;;0.00;;
20367;SDS011;10343;52.402;9.796;2023-07-30T05:22:09;0.80;;;0.00;;
20367;SDS011;10343;52.402;9.796;2023-07-30T05:24:37;1.30;;;0.00;;
20367;SDS011;10343;52.402;9.796;2023-07-30T05:27:05;2.28;;;0.00;;
20367;SDS011;10343;52.402;9.796;2023-07-30T05:29:33;1.20;;;0.00;;
20367;SDS011;10343;52.402;9.796;2023-07-30T05:32:03;0.20;;;0.00;;
20367;SDS011;10343;52.402;9.796;2023-07-30T05:34:31;2.08;;;0.00;;
20367;SDS011;10343;52.402;9.796;2023-07-30T05:36:59;0.00;;;0.00;;
20367;SDS011;10343;52.402;9.796;2023-07-30T05:39:27;1.05;;;0.00;;
20367;SDS011;10343;52.402;9.796;2023-07-30T05:41:55;1.65;;;0.00;;
20367;SDS011;10343;52.402;9.796;2023-07-30T05:44:23;0.47;;;0.00;;
20367;SDS011;10343;52.402;9.796;2023-07-30T05:46:52;2.17;;;0.00;;
20367;SDS011;10343;52.402;9.796;2023-07-30T05:49:22;5.22;;;0.00;;
20367;SDS011;10343;52.402;9.796;2023-07-30T05:51:53;2.63;;;0.00;;
20367;SDS011;10343;52.402;9.796;2023-07-30T05:54:21;7.13;;;0.00;;
20367;SDS011;10343;52.402;9.796;2023-07-30T05:56:51;5.10;;;0.00;;
20367;SDS011;10343;52.402;9.796;2023-07-30T05:59:21;0.20;;;0.00;;
20367;SDS011;10343;52.402;9.796;2023-07-30T06:01:55;1.58;;;0.00;;
20367;SDS011;10343;52.402;9.796;2023-07-30T06:04:25;10.07;;;0.10;;
20367;SDS011;10343;52.402;9.796;2023-07-30T06:06:53;0.35;;;0.00;;
20367;SDS011;10343;52.402;9.796;2023-07-30T06:09:21;1.25;;;0.00;;
20367;SDS011;10343;52.402;9.796;2023-07-30T06:11:49;0.25;;;0.00;;
20367;SDS011;10343;52.402;9.796;2023-07-30T06:14:21;2.42;;;0.00;;
20367;SDS011;10343;52.402;9.796;2023-07-30T06:16:49;0.10;;;0.00;;
20367;SDS011;10343;52.402;9.796;2023-07-30T06:19:17;15.65;;;0.00;;
20367;SDS011;10343;52.402;9.796;2023-07-30T06:21:47;1.02;;;0.00;;
20367;SDS011;10343;52.402;9.796;2023-07-30T06:24:18;2.28;;;0.00;;
20367;SDS011;10343;52.402;9.796;2023-07-30T06:26:46;1.45;;;0.00;;
20367;SDS011;10343;52.402;9.796;2023-07-30T06:29:14;0.35;;;0.00;;
20367;SDS011;10343;52.402;9.796;2023-07-30T06:31:45;2.25;;;0.00;;
20367;SDS011;10343;52.402;9.796;2023-07-30T06:34:13;3.60;;;0.00;;
20367;SDS011;10343;52.402;9.796;2023-07-30T06:36:42;2.70;;;0.00;;
20367;SDS011;10343;52.402;9.796;2023-07-30T06:39:11;0.30;;;0.00;;
20367;SDS011;10343;52.402;9.796;2023-07-30T06:41:39;2.50;;;0.00;;
20367;SDS011;10343;52.402;9.796;2023-07-30T06:44:09;0.35;;;0.00;;
20367;SDS011;10343;52.402;9.796;2023-07-30T06:46:38;0.10;;;0.00;;
20367;SDS011;10343;52.402;9.796;2023-07-30T06:49:06;1.60;;;0.00;;
20367;SDS011;10343;52.402;9.796;2023-07-30T06:51:36;0.00;;;0.00;;
20367;SDS011;10343;52.402;9.796;2023-07-30T06:54:04;0.82;;;0.00;;
20367;SDS011;10343;52.402;9.796;2023-07-30T06:56:34;1.08;;;0.00;;
20367;SDS011;10343;52.402;9.796;2023-07-30T06:59:01;0.80;;;0.00;;
20367;SDS011;10343;52.402;9.796;2023-07-30T07:01:30;4.78;;;0.00;;
20367;SDS011;10343;52.402;9.796;2023-07-30T07:03:59;0.63;;;0.00;;
20367;SDS011;10343;52.402;9.796;2023-07-30T07:06:29;1.05;;;0.00;;
20367;SDS011;10343;52.402;9.796;2023-07-30T07:09:00;0.70;;;0.00;;
20367;SDS011;10343;52.402;9.796;2023-07-30T07:11:28;0.00;;;0.00;;
20367;SDS011;10343;52.402;9.796;2023-07-30T07:14:00;0.30;;;0.00;;
20367;SDS011;10343;52.402;9.796;2023-07-30T07:16:29;0.20;;;0.00;;
20367;SDS011;10343;52.402;9.796;2023-07-30T07:18:59;0.00;;;0.00;;
20367;SDS011;10343;52.402;9.796;2023-07-30T07:21:28;1.10;;;0.00;;
20367;SDS011;10343;52.402;9.796;2023-07-30T07:23:59;0.63;;;0.00;;
20367;SDS011;10343;52.402;9.796;2023-07-30T07:26:37;2.55;;;0.00;;
20367;SDS011;10343;52.402;9.796;2023-07-30T07:29:11;0.00;;;0.00;;
20367;SDS011;10343;52.402;9.796;2023-07-30T07:31:44;4.20;;;0.00;;
20367;SDS011;10343;52.402;9.796;2023-07-30T07:34:13;2.90;;;0.00;;
20367;SDS011;10343;52.402;9.796;2023-07-30T07:36:54;0.00;;;0.00;;
20367;SDS011;10343;52.402;9.796;2023-07-30T07:39:24;0.10;;;0.00;;
20367;SDS011;10343;52.402;9.796;2023-07-30T07:41:55;5.15;;;0.00;;
20367;SDS011;10343;52.402;9.796;2023-07-30T07:44:37;3.33;;;0.00;;
20367;SDS011;10343;52.402;9.796;2023-07-30T07:47:09;1.23;;;0.00;;
20367;SDS011;10343;52.402;9.796;2023-07-30T07:49:42;0.73;;;0.00;;
20367;SDS011;10343;52.402;9.796;2023-07-30T07:52:10;1.00;;;0.00;;
20367;SDS011;10343;52.402;9.796;2023-07-30T07:54:42;1.38;;;0.00;;
20367;SDS011;10343;52.402;9.796;2023-07-30T07:57:17;0.28;;;0.00;;
20367;SDS011;10343;52.402;9.796;2023-07-30T07:59:48;16.05;;;0.00;;
20367;SDS011;10343;52.402;9.796;2023-07-30T08:02:18;0.08;;;0.00;;
20367;SDS011;10343;52.402;9.796;2023-07-30T08:04:51;3.17;;;0.00;;
20367;SDS011;10343;52.402;9.796;2023-07-30T08:07:20;0.10;;;0.00;;
20367;SDS011;10343;52.402;9.796;2023-07-30T08:09:52;5.57;;;0.00;;
20367;SDS011;10343;52.402;9.796;2023-07-30T08:12:24;2.00;;;0.00;;
20367;SDS011;10343;52.402;9.796;2023-07-30T08:14:57;0.25;;;0.00;;
20367;SDS011;10343;52.402;9.796;2023-07-30T08:17:38;9.00;;;0.00;;
20367;SDS011;10343;52.402;9.796;2023-07-30T08:20:11;0.10;;;0.00;;
20367;SDS011;10343;52.402;9.796;2023-07-30T08:22:42;0.52;;;0.00;;
20367;SDS011;10343;52.402;9.796;2023-07-30T08:25:13;3.53;;;0.00;;
20367;SDS011;10343;52.402;9.796;2023-07-30T08:27:44;7.13;;;0.00;;
20367;SDS011;10343;52.402;9.796;2023-07-30T08:30:20;1.00;;;0.00;;
20367;SDS011;10343;52.402;9.796;2023-07-30T08:32:49;1.40;;;0.00;;
20367;SDS011;10343;52.402;9.796;2023-07-30T08:35:17;3.28;;;0.00;;
20367;SDS011;10343;52.402;9.796;2023-07-30T08:37:46;0.10;;;0.00;;
20367;SDS011;10343;52.402;9.796;2023-07-30T08:40:14;0.25;;;0.00;;
20367;SDS011;10343;52.402;9.796;2023-07-30T08:42:44;1.67;;;0.00;;
20367;SDS011;10343;52.402;9.796;2023-07-30T08:45:15;0.15;;;0.00;;
20367;SDS011;10343;52.402;9.796;2023-07-30T08:47:49;2.83;;;0.00;;
20367;SDS011;10343;52.402;9.796;2023-07-30T08:50:17;1.85;;;0.00;;
20367;SDS011;10343;52.402;9.796;2023-07-30T08:52:45;2.90;;;0.00;;
20367;SDS011;10343;52.402;9.796;2023-07-30T08:55:15;1.13;;;0.00;;
20367;SDS011;10343;52.402;9.796;2023-07-30T08:57:44;1.42;;;0.00;;
20367;SDS011;10343;52.402;9.796;2023-07-30T09:00:14;11.27;;;0.00;;
20367;SDS011;10343;52.402;9.796;2023-07-30T09:02:47;1.73;;;0.00;;
20367;SDS011;10343;52.402;9.796;2023-07-30T09:05:18;1.80;;;0.00;;
20367;SDS011;10343;52.402;9.796;2023-07-30T09:07:50;5.40;;;0.00;;
20367;SDS011;10343;52.402;9.796;2023-07-30T09:10:21;2.65;;;0.00;;
20367;SDS011;10343;52.402;9.796;2023-07-30T09:12:52;0.80;;;0.00;;
20367;SDS011;10343;52.402;9.796;2023-07-30T09:15:30;3.45;;;0.00;;
20367;SDS011;10343;52.402;9.796;2023-07-30T09:18:01;7.38;;;0.00;;
20367;SDS011;10343;52.402;9.796;2023-07-30T09:20:38;7.68;;;0.00;;
20367;SDS011;10343;52.402;9.796;2023-07-30T09:23:07;1.90;;;0.00;;
20367;SDS011;10343;52.402;9.796;2023-07-30T09:25:36;3.97;;;0.00;;
20367;SDS011;10343;52.402;9.796;2023-07-30T09:28:05;0.10;;;0.00;;
20367;SDS011;10343;52.402;9.796;2023-07-30T09:30:35;2.67;;;0.00;;
20367;SDS011;10343;52.402;9.796;2023-07-30T09:33:06;0.73;;;0.00;;
20367;SDS011;10343;52.402;9.796;2023-07-30T09:35:36;4.78;;;0.00;;
20367;SDS011;10343;52.402;9.796;2023-07-30T09:38:09;1.95;;;0.00;;
20367;SDS011;10343;52.402;9.796;2023-07-30T09:40:38;0.77;;;0.00;;
20367;SDS011;10343;52.402;9.796;2023-07-30T09:43:08;2.80;;;0.00;;
20367;SDS011;10343;52.402;9.796;2023-07-30T09:45:36;3.50;;;0.00;;
20367;SDS011;10343;52.402;9.796;2023-07-30T09:48:17;1.95;;;0.00;;
20367;SDS011;10343;52.402;9.796;2023-07-30T09:50:46;7.50;;;0.05;;
20367;SDS011;10343;52.402;9.796;2023-07-30T09:53:18;3.17;;;0.00;;
20367;SDS011;10343;52.402;9.796;2023-07-30T09:55:47;2.63;;;0.00;;
20367;SDS011;10343;52.402;9.796;2023-07-30T09:58:21;5.90;;;0.00;;
20367;SDS011;10343;52.402;9.796;2023-07-30T10:00:50;2.40;;;0.00;;
20367;SDS011;10343;52.402;9.796;2023-07-30T10:03:23;3.50;;;0.00;;
20367;SDS011;10343;52.402;9.796;2023-07-30T10:05:53;0.75;;;0.00;;
20367;SDS011;10343;52.402;9.796;2023-07-30T10:08:27;6.60;;;0.00;;
20367;SDS011;10343;52.402;9.796;2023-07-30T10:11:02;1.60;;;0.00;;
20367;SDS011;10343;52.402;9.796;2023-07-30T10:13:33;1.40;;;0.00;;
20367;SDS011;10343;52.402;9.796;2023-07-30T10:16:02;2.72;;;0.08;;
20367;SDS011;10343;52.402;9.796;2023-07-30T10:18:34;0.52;;;0.00;;
20367;SDS011;10343;52.402;9.796;2023-07-30T10:21:08;2.30;;;0.00;;
20367;SDS011;10343;52.402;9.796;2023-07-30T10:23:45;2.58;;;0.00;;
20367;SDS011;10343;52.402;9.796;2023-07-30T10:26:14;4.88;;;0.00;;
20367;SDS011;10343;52.402;9.796;2023-07-30T10:28:44;5.15;;;0.10;;
20367;SDS011;10343;52.402;9.796;2023-07-30T10:31:14;2.03;;;0.00;;
20367;SDS011;10343;52.402;9.796;2023-07-30T10:34:01;1.88;;;0.00;;
20367;SDS011;10343;52.402;9.796;2023-07-30T10:36:42;3.65;;;0.00;;
20367;SDS011;10343;52.402;9.796;2023-07-30T10:39:16;0.85;;;0.00;;
20367;SDS011;10343;52.402;9.796;2023-07-30T10:41:48;3.17;;;0.00;;
20367;SDS011;10343;52.402;9.796;2023-07-30T10:44:22;2.10;;;0.10;;
20367;SDS011;10343;52.402;9.796;2023-07-30T10:46:58;1.08;;;0.00;;
20367;SDS011;10343;52.402;9.796;2023-07-30T10:49:37;2.67;;;0.00;;
20367;SDS011;10343;52.402;9.796;2023-07-30T10:52:13;6.15;;;0.10;;
20367;SDS011;10343;52.402;9.796;2023-07-30T10:54:44;1.65;;;0.00;;
20367;SDS011;10343;52.402;9.796;2023-07-30T10:57:23;1.33;;;0.00;;
20367;SDS011;10343;52.402;9.796;2023-07-30T10:59:57;1.90;;;0.00;;
20367;SDS011;10343;52.402;9.796;2023-07-30T11:02:40;6.63;;;0.10;;
20367;SDS011;10343;52.402;9.796;2023-07-30T11:05:17;3.88;;;0.10;;
20367;SDS011;10343;52.402;9.796;2023-07-30T11:07:52;1.30;;;0.10;;
20367;SDS011;10343;52.402;9.796;2023-07-30T11:10:20;4.30;;;0.10;;
20367;SDS011;10343;52.402;9.796;2023-07-30T11:12:50;1.65;;;0.15;;
20367;SDS011;10343;52.402;9.796;2023-07-30T11:15:19;2.25;;;0.00;;
20367;SDS011;10343;52.402;9.796;2023-07-30T11:17:48;1.80;;;0.00;;
20367;SDS011;10343;52.402;9.796;2023-07-30T11:20:24;1.33;;;0.00;;
20367;SDS011;10343;52.402;9.796;2023-07-30T11:22:55;0.50;;;0.00;;
20367;SDS011;10343;52.402;9.796;2023-07-30T11:25:25;2.08;;;0.00;;
20367;SDS011;10343;52.402;9.796;2023-07-30T11:27:56;1.95;;;0.10;;
20367;SDS011;10343;52.402;9.796;2023-07-30T11:30:24;5.20;;;0.10;;
20367;SDS011;10343;52.402;9.796;2023-07-30T11:32:55;6.28;;;0.13;;
20367;SDS011;10343;52.402;9.796;2023-07-30T11:35:28;7.65;;;0.10;;
20367;SDS011;10343;52.402;9.796;2023-07-30T11:37:56;0.90;;;0.00;;
20367;SDS011;10343;52.402;9.796;2023-07-30T11:40:32;4.65;;;0.15;;
20367;SDS011;10343;52.402;9.796;2023-07-30T11:43:00;2.85;;;0.10;;
20367;SDS011;10343;52.402;9.796;2023-07-30T11:45:35;8.77;;;0.17;;
20367;SDS011;10343;52.402;9.796;2023-07-30T11:48:06;4.25;;;0.20;;
20367;SDS011;10343;52.402;9.796;2023-07-30T11:50:44;2.70;;;0.10;;
20367;SDS011;10343;52.402;9.796;2023-07-30T11:53:13;5.93;;;0.10;;
20367;SDS011;10343;52.402;9.796;2023-07-30T11:55:43;2.03;;;0.10;;
20367;SDS011;10343;52.402;9.796;2023-07-30T11:58:12;7.95;;;0.28;;
20367;SDS011;10343;52.402;9.796;2023-07-30T12:00:43;2.72;;;0.10;;
20367;SDS011;10343;52.402;9.796;2023-07-30T12:03:15;1.63;;;0.08;;
20367;SDS011;10343;52.402;9.796;2023-07-30T12:05:50;2.50;;;0.00;;
20367;SDS011;10343;52.402;9.796;2023-07-30T12:08:18;4.03;;;0.10;;
20367;SDS011;10343;52.402;9.796;2023-07-30T12:10:54;1.73;;;0.10;;
20367;SDS011;10343;52.402;9.796;2023-07-30T12:13:25;1.45;;;0.15;;
20367;SDS011;10343;52.402;9.796;2023-07-30T12:15:53;1.90;;;0.17;;
20367;SDS011;10343;52.402;9.796;2023-07-30T12:18:22;2.90;;;0.00;;
20367;SDS011;10343;52.402;9.796;2023-07-30T12:20:55;2.50;;;0.00;;
20367;SDS011;10343;52.402;9.796;2023-07-30T12:23:28;2.00;;;0.10;;
20367;SDS011;10343;52.402;9.796;2023-07-30T12:25:58;1.58;;;0.00;;
20367;SDS011;10343;52.402;9.796;2023-07-30T12:28:29;1.27;;;0.00;;
20367;SDS011;10343;52.402;9.796;2023-07-30T12:30:58;2.15;;;0.00;;
20367;SDS011;10343;52.402;9.796;2023-07-30T12:33:34;3.75;;;0.00;;
20367;SDS011;10343;52.402;9.796;2023-07-30T12:36:04;1.38;;;0.00;;
20367;SDS011;10343;52.402;9.796;2023-07-30T12:38:32;1.25;;;0.03;;
20367;SDS011;10343;52.402;9.796;2023-07-30T12:41:05;3.30;;;0.00;;
20367;SDS011;10343;52.402;9.796;2023-07-30T12:43:33;0.60;;;0.00;;
20367;SDS011;10343;52.402;9.796;2023-07-30T12:46:09;4.22;;;0.00;;
20367;SDS011;10343;52.402;9.796;2023-07-30T12:48:43;1.67;;;0.00;;
20367;SDS011;10343;52.402;9.796;2023-07-30T12:51:16;5.57;;;0.00;;
20367;SDS011;10343;52.402;9.796;2023-07-30T12:53:59;0.43;;;0.00;;
20367;SDS011;10343;52.402;9.796;2023-07-30T12:56:30;5.38;;;0.00;;
20367;SDS011;10343;52.402;9.796;2023-07-30T12:59:04;1.25;;;0.00;;
20367;SDS011;10343;52.402;9.796;2023-07-30T13:01:34;7.70;;;0.00;;
20367;SDS011;10343;52.402;9.796;2023-07-30T13:04:13;1.20;;;0.00;;
20367;SDS011;10343;52.402;9.796;2023-07-30T13:06:46;0.38;;;0.00;;
20367;SDS011;10343;52.402;9.796;2023-07-30T13:09:27;7.25;;;0.00;;
20367;SDS011;10343;52.402;9.796;2023-07-30T13:11:58;2.50;;;0.00;;
20367;SDS011;10343;52.402;9.796;2023-07-30T13:14:26;0.80;;;0.00;;
20367;SDS011;10343;52.402;9.796;2023-07-30T13:16:56;0.30;;;0.00;;
20367;SDS011;10343;52.402;9.796;2023-07-30T13:19:28;4.35;;;0.00;;
20367;SDS011;10343;52.402;9.796;2023-07-30T13:22:02;7.10;;;0.00;;
20367;SDS011;10343;52.402;9.796;2023-07-30T13:24:32;0.20;;;0.00;;
20367;SDS011;10343;52.402;9.796;2023-07-30T13:27:09;0.73;;;0.00;;
20367;SDS011;10343;52.402;9.796;2023-07-30T13:29:38;0.75;;;0.00;;
20367;SDS011;10343;52.402;9.796;2023-07-30T13:32:08;5.20;;;0.00;;
20367;SDS011;10343;52.402;9.796;2023-07-30T13:34:37;0.45;;;0.00;;
20367;SDS011;10343;52.402;9.796;2023-07-30T13:37:09;0.60;;;0.00;;
20367;SDS011;10343;52.402;9.796;2023-07-30T13:39:40;6.25;;;0.00;;
20367;SDS011;10343;52.402;9.796;2023-07-30T13:42:10;6.53;;;0.00;;
20367;SDS011;10343;52.402;9.796;2023-07-30T13:44:43;0.57;;;0.00;;
20367;SDS011;10343;52.402;9.796;2023-07-30T13:47:15;1.13;;;0.00;;
20367;SDS011;10343;52.402;9.796;2023-07-30T13:49:53;2.90;;;0.00;;
20367;SDS011;10343;52.402;9.796;2023-07-30T13:52:25;7.78;;;0.00;;
20367;SDS011;10343;52.402;9.796;2023-07-30T13:54:58;0.00;;;0.00;;
20367;SDS011;10343;52.402;9.796;2023-07-30T13:57:26;9.00;;;0.00;;
20367;SDS011;10343;52.402;9.796;2023-07-30T13:59:54;3.05;;;0.00;;
20367;SDS011;10343;52.402;9.796;2023-07-30T14:02:27;1.02;;;0.00;;
20367;SDS011;10343;52.402;9.796;2023-07-30T14:04:59;0.75;;;0.00;;
20367;SDS011;10343;52.402;9.796;2023-07-30T14:07:32;2.30;;;0.00;;
20367;SDS011;10343;52.402;9.796;2023-07-30T14:10:08;4.70;;;0.00;;
20367;SDS011;10343;52.402;9.796;2023-07-30T14:12:48;0.43;;;0.00;;
20367;SDS011;10343;52.402;9.796;2023-07-30T14:15:17;0.00;;;0.00;;
20367;SDS011;10343;52.402;9.796;2023-07-30T14:17:47;1.95;;;0.00;;
20367;SDS011;10343;52.402;9.796;2023-07-30T14:20:22;0.73;;;0.00;;
20367;SDS011;10343;52.402;9.796;2023-07-30T14:23:05;0.30;;;0.00;;
20367;SDS011;10343;52.402;9.796;2023-07-30T14:25:37;0.20;;;0.00;;
20367;SDS011;10343;52.402;9.796;2023-07-30T14:28:10;1.95;;;0.00;;
20367;SDS011;10343;52.402;9.796;2023-07-30T14:30:45;1.27;;;0.00;;
20367;SDS011;10343;52.402;9.796;2023-07-30T14:33:17;0.43;;;0.00;;
20367;SDS011;10343;52.402;9.796;2023-07-30T14:35:53;0.00;;;0.00;;
20367;SDS011;10343;52.402;9.796;2023-07-30T14:38:27;0.28;;;0.00;;
20367;SDS011;10343;52.402;9.796;2023-07-30T14:40:57;0.43;;;0.00;;
20367;SDS011;10343;52.402;9.796;2023-07-30T14:43:34;2.20;;;0.00;;
20367;SDS011;10343;52.402;9.796;2023-07-30T14:46:09;0.03;;;0.00;;
20367;SDS011;10343;52.402;9.796;2023-07-30T14:48:44;0.55;;;0.00;;
20367;SDS011;10343;52.402;9.796;2023-07-30T14:51:16;1.15;;;0.00;;
20367;SDS011;10343;52.402;9.796;2023-07-30T14:53:54;0.30;;;0.00;;
20367;SDS011;10343;52.402;9.796;2023-07-30T14:56:26;0.00;;;0.00;;
20367;SDS011;10343;52.402;9.796;2023-07-30T14:58:57;2.72;;;0.00;;
20367;SDS011;10343;52.402;9.796;2023-07-30T15:01:27;1.13;;;0.00;;
20367;SDS011;10343;52.402;9.796;2023-07-30T15:04:03;0.03;;;0.00;;
20367;SDS011;10343;52.402;9.796;2023-07-30T15:06:36;0.00;;;0.00;;
20367;SDS011;10343;52.402;9.796;2023-07-30T15:09:09;0.90;;;0.00;;
20367;SDS011;10343;52.402;9.796;2023-07-30T15:11:40;0.30;;;0.00;;